Yerupaja — 9V2351 — position and weather

sailwx.info

Track history (hours):
 
Tides and Currents Weather Stations Pressure Air Temp Water Temp Dewpoint Dewpoint Depression Visibility Wind Speed Wind Dir Waves Ship Positions

Yerupaja

Last reported at 2018-Jul-20 01:55 UTC. Time now 2018-Jul-20 16:35 UTC.
Position N 09°29' W 079°52'.

Length 140 m; draft 9 m.

Type: Cargo ship. MMSI: 563587000.

Date/timePositionNaut miles runAvg speedWind from/ knotsBaromVisibWave heightAir tempDewpointWater temp
2018-Jul-20 01:55N 09°29' W 079°52'410.6
2018-Jul-20 01:30N 09°26' W 079°54'4 7.6
2018-Jul-20 01:00N 09°22' W 079°53'0 0.6
2018-Jul-20 00:30N 09°22' W 079°53'0 0.0
2018-Jul-20 00:00N 09°22' W 079°53'0 0.0
2018-Jul-19 23:30N 09°22' W 079°53'0 0.0
2018-Jul-19 23:00N 09°22' W 079°53'0 0.0
2018-Jul-19 22:30N 09°22' W 079°53'0 0.0
2018-Jul-19 22:00N 09°22' W 079°53'0 0.0
2018-Jul-19 21:30N 09°22' W 079°53'0 0.0
2018-Jul-19 21:00N 09°22' W 079°53'0 0.0
2018-Jul-19 20:30N 09°22' W 079°53'0 0.0
2018-Jul-19 19:57N 09°22' W 079°53'0 0.0
2018-Jul-19 19:30N 09°22' W 079°53'0 0.0
2018-Jul-19 19:00N 09°22' W 079°53'0 0.0
2018-Jul-19 18:27N 09°22' W 079°53'0 0.0
2018-Jul-19 18:00N 09°22' W 079°53'1 1.1
2018-Jul-19 17:30N 09°22' W 079°53'0 0.9
2018-Jul-19 16:59N 09°22' W 079°53'0 0.0
2018-Jul-19 16:29N 09°22' W 079°53'0 0.0
2018-Jul-19 15:59N 09°22' W 079°53'0 0.0
2018-Jul-19 15:29N 09°22' W 079°53'0 0.0
2018-Jul-19 14:59N 09°22' W 079°53'0 0.0
2018-Jul-19 14:29N 09°22' W 079°53'0 0.0
2018-Jul-19 13:29N 09°22' W 079°53'0 0.0
2018-Jul-19 12:59N 09°22' W 079°53'0 0.0
2018-Jul-19 12:29N 09°22' W 079°53'0 0.0
2018-Jul-19 11:59N 09°22' W 079°53'0 0.0
2018-Jul-19 11:29N 09°22' W 079°53'0 0.0
2018-Jul-19 10:59N 09°22' W 079°53'0 0.0
2018-Jul-19 10:29N 09°22' W 079°53'0 0.0
2018-Jul-19 09:59N 09°22' W 079°53'0 0.0
2018-Jul-19 09:29N 09°22' W 079°53'0 0.0
2018-Jul-19 08:59N 09°22' W 079°53'0 0.0
2018-Jul-19 08:29N 09°22' W 079°53'0 0.0
2018-Jul-19 07:59N 09°22' W 079°53'0 0.0
2018-Jul-19 07:26N 09°22' W 079°53'0 0.0
2018-Jul-19 06:59N 09°22' W 079°53'0 0.0
2018-Jul-19 06:29N 09°22' W 079°53'0 0.0
2018-Jul-19 05:59N 09°22' W 079°53'0 0.0
2018-Jul-19 05:29N 09°22' W 079°53'0 0.0
2018-Jul-19 04:59N 09°22' W 079°53'0 0.0
2018-Jul-19 04:29N 09°22' W 079°53'0 0.0
2018-Jul-19 03:59N 09°22' W 079°53'0 0.0
2018-Jul-19 03:29N 09°22' W 079°53'0 0.0
2018-Jul-19 02:59N 09°22' W 079°53'0 0.0
2018-Jul-19 02:29N 09°22' W 079°53'0 0.0
2018-Jul-19 01:59N 09°22' W 079°53'0 0.0
2018-Jul-19 01:29N 09°22' W 079°53'0 0.8
2018-Jul-19 01:00N 09°22' W 079°53'4 6.9
2018-Jul-19 00:29N 09°26' W 079°54'511.0
2018-Jul-19 00:00N 09°30' W 079°56'713.8
2018-Jul-18 23:30N 09°33' W 080°03'713.7
2018-Jul-18 22:59N 09°36' W 080°10'  
2018-Jul-15 19:45N 09°32' W 079°55'310.5
2018-Jul-15 19:30N 09°30' W 079°54'510.5
2018-Jul-15 19:00N 09°24' W 079°54'2 4.5
2018-Jul-15 18:30N 09°22' W 079°53'0 0.0
2018-Jul-15 18:00N 09°22' W 079°53'0 0.0
2018-Jul-15 17:30N 09°22' W 079°53'0 0.0
2018-Jul-15 17:00N 09°22' W 079°53'0 0.0
2018-Jul-15 16:30N 09°22' W 079°53'0 0.0
2018-Jul-15 16:00N 09°22' W 079°53'0 0.0
2018-Jul-15 15:30N 09°22' W 079°53'0 0.0
2018-Jul-15 15:00N 09°22' W 079°53'0 0.0
2018-Jul-15 14:24N 09°22' W 079°53'0 0.0
2018-Jul-15 14:00N 09°22' W 079°53'0 0.0
2018-Jul-15 13:30N 09°22' W 079°53'0 0.0
2018-Jul-15 13:00N 09°22' W 079°53'0 0.0
2018-Jul-15 12:30N 09°22' W 079°53'0 0.0
2018-Jul-15 12:00N 09°22' W 079°53'0 0.0
2018-Jul-15 11:30N 09°22' W 079°53'0 0.0
2018-Jul-15 11:00N 09°22' W 079°53'0 0.0
2018-Jul-15 10:30N 09°22' W 079°53'0 0.0
2018-Jul-15 10:00N 09°22' W 079°53'0 0.0
2018-Jul-15 09:30N 09°22' W 079°53'0 0.0
2018-Jul-15 09:00N 09°22' W 079°53'0 0.0
2018-Jul-15 08:30N 09°22' W 079°53'0 0.7
2018-Jul-15 08:00N 09°22' W 079°53'1 1.4
2018-Jul-15 07:29N 09°21' W 079°53'0 0.0
2018-Jul-15 06:59N 09°21' W 079°53'0 0.0
2018-Jul-15 06:29N 09°21' W 079°53'0 0.0
2018-Jul-15 05:59N 09°21' W 079°53'0 0.0
2018-Jul-15 05:29N 09°21' W 079°53'0 0.0
2018-Jul-15 04:59N 09°21' W 079°53'0 0.0
2018-Jul-15 04:29N 09°21' W 079°53'0 0.0
2018-Jul-15 03:59N 09°21' W 079°53'0 0.1
2018-Jul-15 03:29N 09°21' W 079°53'0 0.0
2018-Jul-15 02:59N 09°21' W 079°53'0 0.0
2018-Jul-15 02:29N 09°21' W 079°53'0 0.0
2018-Jul-15 01:59N 09°21' W 079°53'0 0.0
2018-Jul-15 01:29N 09°21' W 079°53'0 0.0
2018-Jul-15 00:59N 09°21' W 079°53'0 0.0
2018-Jul-15 00:29N 09°21' W 079°53'0 0.0
2018-Jul-14 23:59N 09°21' W 079°53'0 0.2
2018-Jul-14 23:30N 09°21' W 079°53'2 4.5
2018-Jul-14 23:00N 09°24' W 079°54'2 4.1
2018-Jul-14 22:30N 09°26' W 079°53'2 4.5
2018-Jul-14 22:00N 09°28' W 079°54'0 0.6
2018-Jul-14 21:30N 09°28' W 079°53'4 8.2
2018-Jul-14 20:58N 09°32' W 079°52'258 6.0
2018-Jul-13 01:41N 10°19' W 075°35'2 8.4
2018-Jul-13 01:29N 10°19' W 075°36'4 5.4
2018-Jul-13 00:44N 10°18' W 075°40'3 6.0
2018-Jul-13 00:19N 10°18' W 075°43'61 4.7
2018-Jul-12 11:27N 11°06' W 075°04'46 3.7
2018-Jul-11 23:10N 11°14' W 074°18'1 6.1
2018-Jul-11 22:58N 11°14' W 074°19'5 8.3
2018-Jul-11 22:20N 11°13' W 074°25'410.7
2018-Jul-11 21:59N 11°13' W 074°28'511.1
2018-Jul-11 21:30N 11°12' W 074°34'611.2
2018-Jul-11 20:59N 11°11' W 074°40'711.0
2018-Jul-11 20:21N 11°10' W 074°47'411.1
2018-Jul-11 19:58N 11°10' W 074°51'3 6.5
2018-Jul-11 19:29N 11°07' W 074°52'711.4
2018-Jul-11 18:54N 11°02' W 074°48'410.0
2018-Jul-11 18:29N 10°58' W 074°45'0 0.1
2018-Jul-11 18:00N 10°58' W 074°46'0 0.0
2018-Jul-11 17:24N 10°58' W 074°46'0 0.0
2018-Jul-11 17:00N 10°58' W 074°46'0 0.0
2018-Jul-11 16:30N 10°58' W 074°46'0 0.0
2018-Jul-11 16:00N 10°58' W 074°46'0 0.0
2018-Jul-11 15:30N 10°58' W 074°46'0 0.0
2018-Jul-11 15:00N 10°58' W 074°46'0 0.0
2018-Jul-11 14:30N 10°58' W 074°46'0 0.0
2018-Jul-11 14:00N 10°58' W 074°46'0 0.0
2018-Jul-11 13:30N 10°58' W 074°46'0 0.0
2018-Jul-11 13:00N 10°58' W 074°46'0 0.0
2018-Jul-11 12:30N 10°58' W 074°46'0 0.0
2018-Jul-11 12:00N 10°58' W 074°46'0 0.0
2018-Jul-11 11:30N 10°58' W 074°46'0 0.0
2018-Jul-11 11:00N 10°58' W 074°46'0 0.0
2018-Jul-11 10:30N 10°58' W 074°46'0 0.0
2018-Jul-11 09:57N 10°58' W 074°46'0 0.0
2018-Jul-11 09:27N 10°58' W 074°46'0 0.0
2018-Jul-11 08:57N 10°58' W 074°46'0 0.0
2018-Jul-11 08:27N 10°58' W 074°46'0 0.0
2018-Jul-11 07:57N 10°58' W 074°46'0 0.0
2018-Jul-11 07:30N 10°58' W 074°46'0 0.0
2018-Jul-11 07:00N 10°58' W 074°46'0 0.0
2018-Jul-11 06:30N 10°58' W 074°46'0 0.0
2018-Jul-11 06:00N 10°58' W 074°46'0 0.0
2018-Jul-11 05:27N 10°58' W 074°46'0 0.0
2018-Jul-11 05:00N 10°58' W 074°46'0 0.0
2018-Jul-11 04:30N 10°58' W 074°46'0 0.0
2018-Jul-11 03:54N 10°58' W 074°46'0 0.0
2018-Jul-11 03:30N 10°58' W 074°46'0 0.0
2018-Jul-11 03:00N 10°58' W 074°46'0 0.0
2018-Jul-11 02:30N 10°58' W 074°46'0 0.0
2018-Jul-11 02:00N 10°58' W 074°46'0 0.0
2018-Jul-11 01:27N 10°58' W 074°46'0 0.0
2018-Jul-11 00:57N 10°58' W 074°46'0 0.0
2018-Jul-11 00:30N 10°58' W 074°46'0 0.0
2018-Jul-11 00:00N 10°58' W 074°46'0 0.0
2018-Jul-10 23:24N 10°58' W 074°46'0 0.0
2018-Jul-10 23:00N 10°58' W 074°46'0 0.0
2018-Jul-10 22:27N 10°58' W 074°46'0 0.0
2018-Jul-10 22:00N 10°58' W 074°46'0 0.0
2018-Jul-10 21:30N 10°58' W 074°46'0 0.0
2018-Jul-10 21:00N 10°58' W 074°46'1 2.0
2018-Jul-10 20:30N 10°59' W 074°46'4 7.1
2018-Jul-10 19:58N 11°02' W 074°48'3 7.2
2018-Jul-10 19:30N 11°04' W 074°51'3 5.9
2018-Jul-10 18:55N 11°07' W 074°53'4 9.4
2018-Jul-10 18:30N 11°07' W 074°57'510.4
2018-Jul-10 18:00N 11°06' W 075°02'510.1
2018-Jul-10 17:30N 11°05' W 075°07'8 9.5
2018-Jul-10 16:39N 11°02' W 075°14'2 9.8
2018-Jul-10 16:27N 11°01' W 075°16'  
Track history (hours):
 
Tides and Currents Weather Stations Pressure Air Temp Water Temp Dewpoint Dewpoint Depression Visibility Wind Speed Wind Dir Waves Ship Positions

Yerupaja

Last reported at 2018-Jul-20 01:55 UTC. Time now 2018-Jul-20 16:35 UTC.
Position N 09°29' W 079°52'.

Length 140 m; draft 9 m.

Type: Cargo ship. MMSI: 563587000.

Date/timePositionNaut miles runAvg speedWind from/ knotsBaromVisibWave heightAir tempDewpointWater temp
2018-Jul-20 01:55N 09°29' W 079°52'410.6
2018-Jul-20 01:30N 09°26' W 079°54'4 7.6
2018-Jul-20 01:00N 09°22' W 079°53'0 0.6
2018-Jul-20 00:30N 09°22' W 079°53'0 0.0
2018-Jul-20 00:00N 09°22' W 079°53'0 0.0
2018-Jul-19 23:30N 09°22' W 079°53'0 0.0
2018-Jul-19 23:00N 09°22' W 079°53'0 0.0
2018-Jul-19 22:30N 09°22' W 079°53'0 0.0
2018-Jul-19 22:00N 09°22' W 079°53'0 0.0
2018-Jul-19 21:30N 09°22' W 079°53'0 0.0
2018-Jul-19 21:00N 09°22' W 079°53'0 0.0
2018-Jul-19 20:30N 09°22' W 079°53'0 0.0
2018-Jul-19 19:57N 09°22' W 079°53'0 0.0
2018-Jul-19 19:30N 09°22' W 079°53'0 0.0
2018-Jul-19 19:00N 09°22' W 079°53'0 0.0
2018-Jul-19 18:27N 09°22' W 079°53'0 0.0
2018-Jul-19 18:00N 09°22' W 079°53'1 1.1
2018-Jul-19 17:30N 09°22' W 079°53'0 0.9
2018-Jul-19 16:59N 09°22' W 079°53'0 0.0
2018-Jul-19 16:29N 09°22' W 079°53'0 0.0
2018-Jul-19 15:59N 09°22' W 079°53'0 0.0
2018-Jul-19 15:29N 09°22' W 079°53'0 0.0
2018-Jul-19 14:59N 09°22' W 079°53'0 0.0
2018-Jul-19 14:29N 09°22' W 079°53'0 0.0
2018-Jul-19 13:29N 09°22' W 079°53'0 0.0
2018-Jul-19 12:59N 09°22' W 079°53'0 0.0
2018-Jul-19 12:29N 09°22' W 079°53'0 0.0
2018-Jul-19 11:59N 09°22' W 079°53'0 0.0
2018-Jul-19 11:29N 09°22' W 079°53'0 0.0
2018-Jul-19 10:59N 09°22' W 079°53'0 0.0
2018-Jul-19 10:29N 09°22' W 079°53'0 0.0
2018-Jul-19 09:59N 09°22' W 079°53'0 0.0
2018-Jul-19 09:29N 09°22' W 079°53'0 0.0
2018-Jul-19 08:59N 09°22' W 079°53'0 0.0
2018-Jul-19 08:29N 09°22' W 079°53'0 0.0
2018-Jul-19 07:59N 09°22' W 079°53'0 0.0
2018-Jul-19 07:26N 09°22' W 079°53'0 0.0
2018-Jul-19 06:59N 09°22' W 079°53'0 0.0
2018-Jul-19 06:29N 09°22' W 079°53'0 0.0
2018-Jul-19 05:59N 09°22' W 079°53'0 0.0
2018-Jul-19 05:29N 09°22' W 079°53'0 0.0
2018-Jul-19 04:59N 09°22' W 079°53'0 0.0
2018-Jul-19 04:29N 09°22' W 079°53'0 0.0
2018-Jul-19 03:59N 09°22' W 079°53'0 0.0
2018-Jul-19 03:29N 09°22' W 079°53'0 0.0
2018-Jul-19 02:59N 09°22' W 079°53'0 0.0
2018-Jul-19 02:29N 09°22' W 079°53'0 0.0
2018-Jul-19 01:59N 09°22' W 079°53'0 0.0
2018-Jul-19 01:29N 09°22' W 079°53'0 0.8
2018-Jul-19 01:00N 09°22' W 079°53'4 6.9
2018-Jul-19 00:29N 09°26' W 079°54'511.0
2018-Jul-19 00:00N 09°30' W 079°56'713.8
2018-Jul-18 23:30N 09°33' W 080°03'713.7
2018-Jul-18 22:59N 09°36' W 080°10'  
2018-Jul-15 19:45N 09°32' W 079°55'310.5
2018-Jul-15 19:30N 09°30' W 079°54'510.5
2018-Jul-15 19:00N 09°24' W 079°54'2 4.5
2018-Jul-15 18:30N 09°22' W 079°53'0 0.0
2018-Jul-15 18:00N 09°22' W 079°53'0 0.0
2018-Jul-15 17:30N 09°22' W 079°53'0 0.0
2018-Jul-15 17:00N 09°22' W 079°53'0 0.0
2018-Jul-15 16:30N 09°22' W 079°53'0 0.0
2018-Jul-15 16:00N 09°22' W 079°53'0 0.0
2018-Jul-15 15:30N 09°22' W 079°53'0 0.0
2018-Jul-15 15:00N 09°22' W 079°53'0 0.0
2018-Jul-15 14:24N 09°22' W 079°53'0 0.0
2018-Jul-15 14:00N 09°22' W 079°53'0 0.0
2018-Jul-15 13:30N 09°22' W 079°53'0 0.0
2018-Jul-15 13:00N 09°22' W 079°53'0 0.0
2018-Jul-15 12:30N 09°22' W 079°53'0 0.0
2018-Jul-15 12:00N 09°22' W 079°53'0 0.0
2018-Jul-15 11:30N 09°22' W 079°53'0 0.0
2018-Jul-15 11:00N 09°22' W 079°53'0 0.0
2018-Jul-15 10:30N 09°22' W 079°53'0 0.0
2018-Jul-15 10:00N 09°22' W 079°53'0 0.0
2018-Jul-15 09:30N 09°22' W 079°53'0 0.0
2018-Jul-15 09:00N 09°22' W 079°53'0 0.0
2018-Jul-15 08:30N 09°22' W 079°53'0 0.7
2018-Jul-15 08:00N 09°22' W 079°53'1 1.4
2018-Jul-15 07:29N 09°21' W 079°53'0 0.0
2018-Jul-15 06:59N 09°21' W 079°53'0 0.0
2018-Jul-15 06:29N 09°21' W 079°53'0 0.0
2018-Jul-15 05:59N 09°21' W 079°53'0 0.0
2018-Jul-15 05:29N 09°21' W 079°53'0 0.0
2018-Jul-15 04:59N 09°21' W 079°53'0 0.0
2018-Jul-15 04:29N 09°21' W 079°53'0 0.0
2018-Jul-15 03:59N 09°21' W 079°53'0 0.1
2018-Jul-15 03:29N 09°21' W 079°53'0 0.0
2018-Jul-15 02:59N 09°21' W 079°53'0 0.0
2018-Jul-15 02:29N 09°21' W 079°53'0 0.0
2018-Jul-15 01:59N 09°21' W 079°53'0 0.0
2018-Jul-15 01:29N 09°21' W 079°53'0 0.0
2018-Jul-15 00:59N 09°21' W 079°53'0 0.0
2018-Jul-15 00:29N 09°21' W 079°53'0 0.0
2018-Jul-14 23:59N 09°21' W 079°53'0 0.2
2018-Jul-14 23:30N 09°21' W 079°53'2 4.5
2018-Jul-14 23:00N 09°24' W 079°54'2 4.1
2018-Jul-14 22:30N 09°26' W 079°53'2 4.5
2018-Jul-14 22:00N 09°28' W 079°54'0 0.6
2018-Jul-14 21:30N 09°28' W 079°53'4 8.2
2018-Jul-14 20:58N 09°32' W 079°52'258 6.0
2018-Jul-13 01:41N 10°19' W 075°35'2 8.4
2018-Jul-13 01:29N 10°19' W 075°36'4 5.4
2018-Jul-13 00:44N 10°18' W 075°40'3 6.0
2018-Jul-13 00:19N 10°18' W 075°43'61 4.7
2018-Jul-12 11:27N 11°06' W 075°04'46 3.7
2018-Jul-11 23:10N 11°14' W 074°18'1 6.1
2018-Jul-11 22:58N 11°14' W 074°19'5 8.3
2018-Jul-11 22:20N 11°13' W 074°25'410.7
2018-Jul-11 21:59N 11°13' W 074°28'511.1
2018-Jul-11 21:30N 11°12' W 074°34'611.2
2018-Jul-11 20:59N 11°11' W 074°40'711.0
2018-Jul-11 20:21N 11°10' W 074°47'411.1
2018-Jul-11 19:58N 11°10' W 074°51'3 6.5
2018-Jul-11 19:29N 11°07' W 074°52'711.4
2018-Jul-11 18:54N 11°02' W 074°48'410.0
2018-Jul-11 18:29N 10°58' W 074°45'0 0.1
2018-Jul-11 18:00N 10°58' W 074°46'0 0.0
2018-Jul-11 17:24N 10°58' W 074°46'0 0.0
2018-Jul-11 17:00N 10°58' W 074°46'0 0.0
2018-Jul-11 16:30N 10°58' W 074°46'0 0.0
2018-Jul-11 16:00N 10°58' W 074°46'0 0.0
2018-Jul-11 15:30N 10°58' W 074°46'0 0.0
2018-Jul-11 15:00N 10°58' W 074°46'0 0.0
2018-Jul-11 14:30N 10°58' W 074°46'0 0.0
2018-Jul-11 14:00N 10°58' W 074°46'0 0.0
2018-Jul-11 13:30N 10°58' W 074°46'0 0.0
2018-Jul-11 13:00N 10°58' W 074°46'0 0.0
2018-Jul-11 12:30N 10°58' W 074°46'0 0.0
2018-Jul-11 12:00N 10°58' W 074°46'0 0.0
2018-Jul-11 11:30N 10°58' W 074°46'0 0.0
2018-Jul-11 11:00N 10°58' W 074°46'0 0.0
2018-Jul-11 10:30N 10°58' W 074°46'0 0.0
2018-Jul-11 09:57N 10°58' W 074°46'0 0.0
2018-Jul-11 09:27N 10°58' W 074°46'0 0.0
2018-Jul-11 08:57N 10°58' W 074°46'0 0.0
2018-Jul-11 08:27N 10°58' W 074°46'0 0.0
2018-Jul-11 07:57N 10°58' W 074°46'0 0.0
2018-Jul-11 07:30N 10°58' W 074°46'0 0.0
2018-Jul-11 07:00N 10°58' W 074°46'0 0.0
2018-Jul-11 06:30N 10°58' W 074°46'0 0.0
2018-Jul-11 06:00N 10°58' W 074°46'0 0.0
2018-Jul-11 05:27N 10°58' W 074°46'0 0.0
2018-Jul-11 05:00N 10°58' W 074°46'0 0.0
2018-Jul-11 04:30N 10°58' W 074°46'0 0.0
2018-Jul-11 03:54N 10°58' W 074°46'0 0.0
2018-Jul-11 03:30N 10°58' W 074°46'0 0.0
2018-Jul-11 03:00N 10°58' W 074°46'0 0.0
2018-Jul-11 02:30N 10°58' W 074°46'0 0.0
2018-Jul-11 02:00N 10°58' W 074°46'0 0.0
2018-Jul-11 01:27N 10°58' W 074°46'0 0.0
2018-Jul-11 00:57N 10°58' W 074°46'0 0.0
2018-Jul-11 00:30N 10°58' W 074°46'0 0.0
2018-Jul-11 00:00N 10°58' W 074°46'0 0.0
2018-Jul-10 23:24N 10°58' W 074°46'0 0.0
2018-Jul-10 23:00N 10°58' W 074°46'0 0.0
2018-Jul-10 22:27N 10°58' W 074°46'0 0.0
2018-Jul-10 22:00N 10°58' W 074°46'0 0.0
2018-Jul-10 21:30N 10°58' W 074°46'0 0.0
2018-Jul-10 21:00N 10°58' W 074°46'1 2.0
2018-Jul-10 20:30N 10°59' W 074°46'4 7.1
2018-Jul-10 19:58N 11°02' W 074°48'3 7.2
2018-Jul-10 19:30N 11°04' W 074°51'3 5.9
2018-Jul-10 18:55N 11°07' W 074°53'4 9.4
2018-Jul-10 18:30N 11°07' W 074°57'510.4
2018-Jul-10 18:00N 11°06' W 075°02'510.1
2018-Jul-10 17:30N 11°05' W 075°07'8 9.5
2018-Jul-10 16:39N 11°02' W 075°14'2 9.8
2018-Jul-10 16:27N 11°01' W 075°16'  

Dump ship's entire track history